sensor_id;sensor_type;location;lat;lon;timestamp;P1;durP1;ratioP1;P2;durP2;ratioP2
19985;SDS011;10154;52.474;10.768;2022-08-21T00:01:10;7.22;;;2.00;;
19985;SDS011;10154;52.474;10.768;2022-08-21T00:03:40;4.22;;;1.65;;
19985;SDS011;10154;52.474;10.768;2022-08-21T00:06:07;4.40;;;2.08;;
19985;SDS011;10154;52.474;10.768;2022-08-21T00:08:33;5.23;;;1.60;;
19985;SDS011;10154;52.474;10.768;2022-08-21T00:11:02;5.30;;;1.73;;
19985;SDS011;10154;52.474;10.768;2022-08-21T00:13:38;5.20;;;1.88;;
19985;SDS011;10154;52.474;10.768;2022-08-21T00:16:07;3.43;;;1.50;;
19985;SDS011;10154;52.474;10.768;2022-08-21T00:18:33;4.90;;;1.60;;
19985;SDS011;10154;52.474;10.768;2022-08-21T00:21:02;4.50;;;1.50;;
19985;SDS011;10154;52.474;10.768;2022-08-21T00:23:29;9.80;;;1.77;;
19985;SDS011;10154;52.474;10.768;2022-08-21T00:25:57;4.63;;;1.77;;
19985;SDS011;10154;52.474;10.768;2022-08-21T00:28:41;4.87;;;1.63;;
19985;SDS011;10154;52.474;10.768;2022-08-21T00:31:08;7.23;;;1.90;;
19985;SDS011;10154;52.474;10.768;2022-08-21T00:36:38;4.53;;;1.70;;
19985;SDS011;10154;52.474;10.768;2022-08-21T00:39:09;7.23;;;1.60;;
19985;SDS011;10154;52.474;10.768;2022-08-21T00:41:46;4.07;;;1.40;;
19985;SDS011;10154;52.474;10.768;2022-08-21T00:44:24;4.67;;;1.50;;
19985;SDS011;10154;52.474;10.768;2022-08-21T00:46:54;14.40;;;2.10;;
19985;SDS011;10154;52.474;10.768;2022-08-21T00:49:20;4.83;;;1.70;;
19985;SDS011;10154;52.474;10.768;2022-08-21T00:51:51;5.70;;;1.50;;
19985;SDS011;10154;52.474;10.768;2022-08-21T00:54:24;4.63;;;1.50;;
19985;SDS011;10154;52.474;10.768;2022-08-21T00:56:55;3.40;;;1.40;;
19985;SDS011;10154;52.474;10.768;2022-08-21T00:59:37;4.90;;;1.50;;
19985;SDS011;10154;52.474;10.768;2022-08-21T01:02:08;4.40;;;1.60;;
19985;SDS011;10154;52.474;10.768;2022-08-21T01:04:35;3.30;;;1.50;;
19985;SDS011;10154;52.474;10.768;2022-08-21T01:07:06;4.10;;;1.60;;
19985;SDS011;10154;52.474;10.768;2022-08-21T01:09:36;6.00;;;1.90;;
19985;SDS011;10154;52.474;10.768;2022-08-21T01:12:05;6.57;;;1.70;;
19985;SDS011;10154;52.474;10.768;2022-08-21T01:14:34;3.73;;;1.43;;
19985;SDS011;10154;52.474;10.768;2022-08-21T01:17:02;4.70;;;1.50;;
19985;SDS011;10154;52.474;10.768;2022-08-21T01:19:32;7.47;;;2.10;;
19985;SDS011;10154;52.474;10.768;2022-08-21T01:21:58;4.53;;;1.90;;
19985;SDS011;10154;52.474;10.768;2022-08-21T01:24:35;2.73;;;1.40;;
19985;SDS011;10154;52.474;10.768;2022-08-21T01:27:05;5.70;;;2.00;;
19985;SDS011;10154;52.474;10.768;2022-08-21T01:29:48;4.60;;;1.80;;
19985;SDS011;10154;52.474;10.768;2022-08-21T01:32:21;6.70;;;1.80;;
19985;SDS011;10154;52.474;10.768;2022-08-21T01:34:57;2.60;;;1.50;;
19985;SDS011;10154;52.474;10.768;2022-08-21T01:37:33;4.37;;;1.40;;
19985;SDS011;10154;52.474;10.768;2022-08-21T01:40:02;4.30;;;1.70;;
19985;SDS011;10154;52.474;10.768;2022-08-21T01:42:33;4.57;;;1.70;;
19985;SDS011;10154;52.474;10.768;2022-08-21T01:45:00;5.67;;;1.63;;
19985;SDS011;10154;52.474;10.768;2022-08-21T01:47:33;3.50;;;1.63;;
19985;SDS011;10154;52.474;10.768;2022-08-21T01:50:03;3.50;;;1.50;;
19985;SDS011;10154;52.474;10.768;2022-08-21T01:52:33;3.20;;;1.43;;
19985;SDS011;10154;52.474;10.768;2022-08-21T01:54:59;3.80;;;1.50;;
19985;SDS011;10154;52.474;10.768;2022-08-21T01:57:29;5.03;;;1.50;;
19985;SDS011;10154;52.474;10.768;2022-08-21T01:59:58;7.50;;;1.57;;
19985;SDS011;10154;52.474;10.768;2022-08-21T02:02:24;5.60;;;1.73;;
19985;SDS011;10154;52.474;10.768;2022-08-21T02:04:54;4.13;;;1.50;;
19985;SDS011;10154;52.474;10.768;2022-08-21T02:07:25;7.43;;;1.87;;
19985;SDS011;10154;52.474;10.768;2022-08-21T02:09:54;3.50;;;1.67;;
19985;SDS011;10154;52.474;10.768;2022-08-21T02:12:20;4.33;;;1.67;;
19985;SDS011;10154;52.474;10.768;2022-08-21T02:14:49;4.77;;;1.83;;
19985;SDS011;10154;52.474;10.768;2022-08-21T02:17:36;2.53;;;1.30;;
19985;SDS011;10154;52.474;10.768;2022-08-21T02:20:14;4.87;;;1.60;;
19985;SDS011;10154;52.474;10.768;2022-08-21T02:22:48;3.83;;;1.47;;
19985;SDS011;10154;52.474;10.768;2022-08-21T02:25:21;7.83;;;1.80;;
19985;SDS011;10154;52.474;10.768;2022-08-21T02:27:49;3.83;;;1.70;;
19985;SDS011;10154;52.474;10.768;2022-08-21T02:30:18;6.47;;;1.90;;
19985;SDS011;10154;52.474;10.768;2022-08-21T02:32:56;3.57;;;1.57;;
19985;SDS011;10154;52.474;10.768;2022-08-21T02:35:23;7.73;;;1.93;;
19985;SDS011;10154;52.474;10.768;2022-08-21T02:37:53;4.47;;;1.90;;
19985;SDS011;10154;52.474;10.768;2022-08-21T02:40:26;3.87;;;1.70;;
19985;SDS011;10154;52.474;10.768;2022-08-21T02:42:57;5.43;;;1.70;;
19985;SDS011;10154;52.474;10.768;2022-08-21T02:45:29;8.67;;;1.70;;
19985;SDS011;10154;52.474;10.768;2022-08-21T02:47:58;6.90;;;1.63;;
19985;SDS011;10154;52.474;10.768;2022-08-21T02:50:28;4.47;;;2.07;;
19985;SDS011;10154;52.474;10.768;2022-08-21T02:52:58;5.23;;;1.77;;
19985;SDS011;10154;52.474;10.768;2022-08-21T02:55:26;5.27;;;1.70;;
19985;SDS011;10154;52.474;10.768;2022-08-21T02:57:55;3.83;;;1.40;;
19985;SDS011;10154;52.474;10.768;2022-08-21T03:00:24;4.23;;;1.60;;
19985;SDS011;10154;52.474;10.768;2022-08-21T03:02:53;5.97;;;1.70;;
19985;SDS011;10154;52.474;10.768;2022-08-21T03:05:21;5.57;;;1.80;;
19985;SDS011;10154;52.474;10.768;2022-08-21T03:07:48;7.43;;;2.00;;
19985;SDS011;10154;52.474;10.768;2022-08-21T03:10:16;4.50;;;1.70;;
19985;SDS011;10154;52.474;10.768;2022-08-21T03:12:44;5.77;;;1.70;;
19985;SDS011;10154;52.474;10.768;2022-08-21T03:15:12;3.73;;;1.57;;
19985;SDS011;10154;52.474;10.768;2022-08-21T03:17:40;5.10;;;1.80;;
19985;SDS011;10154;52.474;10.768;2022-08-21T03:20:07;4.70;;;1.70;;
19985;SDS011;10154;52.474;10.768;2022-08-21T03:22:35;3.37;;;1.77;;
19985;SDS011;10154;52.474;10.768;2022-08-21T03:25:02;7.77;;;1.87;;
19985;SDS011;10154;52.474;10.768;2022-08-21T03:27:28;6.43;;;1.80;;
19985;SDS011;10154;52.474;10.768;2022-08-21T03:29:56;4.20;;;1.80;;
19985;SDS011;10154;52.474;10.768;2022-08-21T03:32:23;6.27;;;1.90;;
19985;SDS011;10154;52.474;10.768;2022-08-21T03:34:49;3.47;;;1.70;;
19985;SDS011;10154;52.474;10.768;2022-08-21T03:37:15;6.37;;;1.73;;
19985;SDS011;10154;52.474;10.768;2022-08-21T03:39:42;4.13;;;1.80;;
19985;SDS011;10154;52.474;10.768;2022-08-21T03:42:12;4.60;;;2.00;;
19985;SDS011;10154;52.474;10.768;2022-08-21T03:44:41;5.70;;;1.90;;
19985;SDS011;10154;52.474;10.768;2022-08-21T03:47:21;5.73;;;1.87;;
19985;SDS011;10154;52.474;10.768;2022-08-21T03:49:47;6.07;;;1.90;;
19985;SDS011;10154;52.474;10.768;2022-08-21T03:52:14;4.50;;;1.70;;
19985;SDS011;10154;52.474;10.768;2022-08-21T03:54:41;3.40;;;1.83;;
19985;SDS011;10154;52.474;10.768;2022-08-21T03:57:07;6.73;;;1.87;;
19985;SDS011;10154;52.474;10.768;2022-08-21T03:59:35;6.27;;;1.80;;
19985;SDS011;10154;52.474;10.768;2022-08-21T04:02:03;6.10;;;1.90;;
19985;SDS011;10154;52.474;10.768;2022-08-21T04:04:32;5.73;;;1.70;;
19985;SDS011;10154;52.474;10.768;2022-08-21T04:06:59;4.23;;;1.50;;
19985;SDS011;10154;52.474;10.768;2022-08-21T04:09:26;3.97;;;1.77;;
19985;SDS011;10154;52.474;10.768;2022-08-21T04:11:53;5.60;;;1.70;;
19985;SDS011;10154;52.474;10.768;2022-08-21T04:14:23;6.37;;;1.80;;
19985;SDS011;10154;52.474;10.768;2022-08-21T04:16:49;5.70;;;2.07;;
19985;SDS011;10154;52.474;10.768;2022-08-21T04:19:15;4.23;;;1.80;;
19985;SDS011;10154;52.474;10.768;2022-08-21T04:21:41;6.20;;;1.73;;
19985;SDS011;10154;52.474;10.768;2022-08-21T04:24:08;10.40;;;2.10;;
19985;SDS011;10154;52.474;10.768;2022-08-21T04:26:38;4.50;;;1.90;;
19985;SDS011;10154;52.474;10.768;2022-08-21T04:29:04;7.87;;;2.50;;
19985;SDS011;10154;52.474;10.768;2022-08-21T04:31:34;4.37;;;1.70;;
19985;SDS011;10154;52.474;10.768;2022-08-21T04:34:04;6.50;;;2.07;;
19985;SDS011;10154;52.474;10.768;2022-08-21T04:36:31;4.57;;;1.90;;
19985;SDS011;10154;52.474;10.768;2022-08-21T04:38:58;5.87;;;2.07;;
19985;SDS011;10154;52.474;10.768;2022-08-21T04:41:24;5.90;;;2.03;;
19985;SDS011;10154;52.474;10.768;2022-08-21T04:43:51;4.50;;;1.80;;
19985;SDS011;10154;52.474;10.768;2022-08-21T04:46:17;3.97;;;2.03;;
19985;SDS011;10154;52.474;10.768;2022-08-21T04:48:43;6.50;;;2.07;;
19985;SDS011;10154;52.474;10.768;2022-08-21T04:53:47;5.67;;;2.13;;
19985;SDS011;10154;52.474;10.768;2022-08-21T04:56:20;4.50;;;2.20;;
19985;SDS011;10154;52.474;10.768;2022-08-21T04:58:57;6.67;;;1.87;;
19985;SDS011;10154;52.474;10.768;2022-08-21T05:01:27;3.10;;;1.87;;
19985;SDS011;10154;52.474;10.768;2022-08-21T05:03:57;3.83;;;2.07;;
19985;SDS011;10154;52.474;10.768;2022-08-21T05:06:25;5.00;;;2.10;;
19985;SDS011;10154;52.474;10.768;2022-08-21T05:08:55;6.03;;;2.20;;
19985;SDS011;10154;52.474;10.768;2022-08-21T05:11:21;3.57;;;2.10;;
19985;SDS011;10154;52.474;10.768;2022-08-21T05:13:50;4.07;;;2.10;;
19985;SDS011;10154;52.474;10.768;2022-08-21T05:16:16;4.30;;;1.93;;
19985;SDS011;10154;52.474;10.768;2022-08-21T05:18:42;6.70;;;2.37;;
19985;SDS011;10154;52.474;10.768;2022-08-21T05:21:09;5.50;;;2.40;;
19985;SDS011;10154;52.474;10.768;2022-08-21T05:23:35;4.97;;;2.40;;
19985;SDS011;10154;52.474;10.768;2022-08-21T05:26:02;4.47;;;2.60;;
19985;SDS011;10154;52.474;10.768;2022-08-21T05:28:29;4.77;;;2.53;;
19985;SDS011;10154;52.474;10.768;2022-08-21T05:30:56;5.97;;;2.30;;
19985;SDS011;10154;52.474;10.768;2022-08-21T05:33:22;4.93;;;2.47;;
19985;SDS011;10154;52.474;10.768;2022-08-21T05:35:49;5.07;;;2.47;;
19985;SDS011;10154;52.474;10.768;2022-08-21T05:38:20;9.10;;;2.63;;
19985;SDS011;10154;52.474;10.768;2022-08-21T05:40:47;7.73;;;2.30;;
19985;SDS011;10154;52.474;10.768;2022-08-21T05:43:14;6.83;;;2.47;;
19985;SDS011;10154;52.474;10.768;2022-08-21T05:45:41;3.93;;;2.40;;
19985;SDS011;10154;52.474;10.768;2022-08-21T05:48:12;4.53;;;2.30;;
19985;SDS011;10154;52.474;10.768;2022-08-21T05:50:41;6.13;;;2.50;;
19985;SDS011;10154;52.474;10.768;2022-08-21T05:53:09;4.93;;;2.60;;
19985;SDS011;10154;52.474;10.768;2022-08-21T05:55:36;7.53;;;2.50;;
19985;SDS011;10154;52.474;10.768;2022-08-21T05:58:04;4.93;;;2.80;;
19985;SDS011;10154;52.474;10.768;2022-08-21T06:00:30;9.23;;;2.60;;
19985;SDS011;10154;52.474;10.768;2022-08-21T06:02:57;8.03;;;2.70;;
19985;SDS011;10154;52.474;10.768;2022-08-21T06:05:23;5.87;;;2.40;;
19985;SDS011;10154;52.474;10.768;2022-08-21T06:07:50;4.60;;;2.50;;
19985;SDS011;10154;52.474;10.768;2022-08-21T06:10:16;6.20;;;2.73;;
19985;SDS011;10154;52.474;10.768;2022-08-21T06:12:42;5.43;;;2.27;;
19985;SDS011;10154;52.474;10.768;2022-08-21T06:15:08;5.97;;;2.30;;
19985;SDS011;10154;52.474;10.768;2022-08-21T06:17:35;4.57;;;2.23;;
19985;SDS011;10154;52.474;10.768;2022-08-21T06:20:01;7.60;;;2.40;;
19985;SDS011;10154;52.474;10.768;2022-08-21T06:22:29;6.00;;;2.50;;
19985;SDS011;10154;52.474;10.768;2022-08-21T06:24:56;9.07;;;2.57;;
19985;SDS011;10154;52.474;10.768;2022-08-21T06:27:22;8.33;;;2.70;;
19985;SDS011;10154;52.474;10.768;2022-08-21T06:29:48;7.27;;;2.70;;
19985;SDS011;10154;52.474;10.768;2022-08-21T06:32:14;5.90;;;2.40;;
19985;SDS011;10154;52.474;10.768;2022-08-21T06:34:40;6.87;;;2.60;;
19985;SDS011;10154;52.474;10.768;2022-08-21T06:37:07;5.60;;;2.20;;
19985;SDS011;10154;52.474;10.768;2022-08-21T06:39:43;9.73;;;2.40;;
19985;SDS011;10154;52.474;10.768;2022-08-21T06:42:13;7.17;;;2.27;;
19985;SDS011;10154;52.474;10.768;2022-08-21T06:44:41;6.83;;;2.27;;
19985;SDS011;10154;52.474;10.768;2022-08-21T06:47:08;5.50;;;2.13;;
19985;SDS011;10154;52.474;10.768;2022-08-21T06:49:34;5.67;;;2.20;;
19985;SDS011;10154;52.474;10.768;2022-08-21T06:52:01;5.40;;;2.30;;
19985;SDS011;10154;52.474;10.768;2022-08-21T06:54:27;5.90;;;2.23;;
19985;SDS011;10154;52.474;10.768;2022-08-21T06:56:54;5.53;;;2.00;;
19985;SDS011;10154;52.474;10.768;2022-08-21T06:59:20;6.22;;;2.05;;
19985;SDS011;10154;52.474;10.768;2022-08-21T07:01:46;6.95;;;1.88;;
19985;SDS011;10154;52.474;10.768;2022-08-21T07:04:13;5.40;;;1.90;;
19985;SDS011;10154;52.474;10.768;2022-08-21T07:06:39;7.47;;;1.92;;
19985;SDS011;10154;52.474;10.768;2022-08-21T07:09:05;7.88;;;2.03;;
19985;SDS011;10154;52.474;10.768;2022-08-21T07:11:31;5.45;;;2.00;;
19985;SDS011;10154;52.474;10.768;2022-08-21T07:13:57;8.40;;;2.22;;
19985;SDS011;10154;52.474;10.768;2022-08-21T07:16:23;5.22;;;1.90;;
19985;SDS011;10154;52.474;10.768;2022-08-21T07:18:49;6.10;;;1.77;;
19985;SDS011;10154;52.474;10.768;2022-08-21T07:21:15;4.13;;;1.80;;
19985;SDS011;10154;52.474;10.768;2022-08-21T07:23:46;4.95;;;1.70;;
19985;SDS011;10154;52.474;10.768;2022-08-21T07:26:16;4.50;;;1.85;;
19985;SDS011;10154;52.474;10.768;2022-08-21T07:28:46;4.65;;;1.80;;
19985;SDS011;10154;52.474;10.768;2022-08-21T07:31:16;5.18;;;1.58;;
19985;SDS011;10154;52.474;10.768;2022-08-21T07:33:44;6.55;;;1.80;;
19985;SDS011;10154;52.474;10.768;2022-08-21T07:36:11;4.20;;;1.80;;
19985;SDS011;10154;52.474;10.768;2022-08-21T07:38:38;2.90;;;1.48;;
19985;SDS011;10154;52.474;10.768;2022-08-21T07:41:12;4.55;;;1.75;;
19985;SDS011;10154;52.474;10.768;2022-08-21T07:43:42;4.78;;;1.60;;
19985;SDS011;10154;52.474;10.768;2022-08-21T07:46:09;4.53;;;1.80;;
19985;SDS011;10154;52.474;10.768;2022-08-21T07:48:35;4.50;;;1.70;;
19985;SDS011;10154;52.474;10.768;2022-08-21T07:51:04;7.15;;;2.00;;
19985;SDS011;10154;52.474;10.768;2022-08-21T07:53:34;8.77;;;1.80;;
19985;SDS011;10154;52.474;10.768;2022-08-21T07:56:02;5.75;;;1.90;;
19985;SDS011;10154;52.474;10.768;2022-08-21T07:58:39;4.43;;;1.52;;
19985;SDS011;10154;52.474;10.768;2022-08-21T08:01:06;3.95;;;1.60;;
19985;SDS011;10154;52.474;10.768;2022-08-21T08:03:33;4.75;;;1.73;;
19985;SDS011;10154;52.474;10.768;2022-08-21T08:06:00;8.85;;;1.90;;
19985;SDS011;10154;52.474;10.768;2022-08-21T08:08:29;4.97;;;1.63;;
19985;SDS011;10154;52.474;10.768;2022-08-21T08:10:56;3.83;;;1.70;;
19985;SDS011;10154;52.474;10.768;2022-08-21T08:13:23;5.10;;;1.60;;
19985;SDS011;10154;52.474;10.768;2022-08-21T08:15:50;4.97;;;1.67;;
19985;SDS011;10154;52.474;10.768;2022-08-21T08:18:16;4.95;;;1.70;;
19985;SDS011;10154;52.474;10.768;2022-08-21T08:20:45;4.78;;;1.65;;
19985;SDS011;10154;52.474;10.768;2022-08-21T08:23:11;4.28;;;1.70;;
19985;SDS011;10154;52.474;10.768;2022-08-21T08:25:39;4.43;;;1.67;;
19985;SDS011;10154;52.474;10.768;2022-08-21T08:28:06;3.63;;;1.70;;
19985;SDS011;10154;52.474;10.768;2022-08-21T08:30:33;5.15;;;1.85;;
19985;SDS011;10154;52.474;10.768;2022-08-21T08:32:59;3.22;;;1.55;;
19985;SDS011;10154;52.474;10.768;2022-08-21T08:35:26;4.30;;;1.50;;
19985;SDS011;10154;52.474;10.768;2022-08-21T08:37:53;5.00;;;1.95;;
19985;SDS011;10154;52.474;10.768;2022-08-21T08:40:37;3.92;;;1.80;;
19985;SDS011;10154;52.474;10.768;2022-08-21T08:43:12;5.13;;;2.03;;
19985;SDS011;10154;52.474;10.768;2022-08-21T08:45:39;7.15;;;2.45;;
19985;SDS011;10154;52.474;10.768;2022-08-21T08:48:10;8.43;;;1.90;;
19985;SDS011;10154;52.474;10.768;2022-08-21T08:53:27;7.95;;;2.20;;
19985;SDS011;10154;52.474;10.768;2022-08-21T08:56:01;5.05;;;2.10;;
19985;SDS011;10154;52.474;10.768;2022-08-21T08:58:30;9.73;;;2.97;;
19985;SDS011;10154;52.474;10.768;2022-08-21T09:01:08;5.00;;;2.17;;
19985;SDS011;10154;52.474;10.768;2022-08-21T09:03:44;7.78;;;2.00;;
19985;SDS011;10154;52.474;10.768;2022-08-21T09:06:24;3.78;;;2.00;;
19985;SDS011;10154;52.474;10.768;2022-08-21T09:09:11;6.80;;;2.28;;
19985;SDS011;10154;52.474;10.768;2022-08-21T09:12:04;6.43;;;2.20;;
19985;SDS011;10154;52.474;10.768;2022-08-21T09:17:40;3.80;;;1.90;;
19985;SDS011;10154;52.474;10.768;2022-08-21T09:26:49;4.07;;;2.10;;
19985;SDS011;10154;52.474;10.768;2022-08-21T09:29:35;4.22;;;1.98;;
19985;SDS011;10154;52.474;10.768;2022-08-21T09:32:09;6.60;;;1.88;;
19985;SDS011;10154;52.474;10.768;2022-08-21T09:34:59;3.88;;;2.03;;
19985;SDS011;10154;52.474;10.768;2022-08-21T09:37:30;4.35;;;1.95;;
19985;SDS011;10154;52.474;10.768;2022-08-21T09:40:00;4.28;;;2.10;;
19985;SDS011;10154;52.474;10.768;2022-08-21T09:42:40;5.88;;;2.20;;
19985;SDS011;10154;52.474;10.768;2022-08-21T09:47:42;7.07;;;2.00;;
19985;SDS011;10154;52.474;10.768;2022-08-21T09:50:15;8.77;;;2.10;;
19985;SDS011;10154;52.474;10.768;2022-08-21T09:52:49;6.32;;;2.30;;
19985;SDS011;10154;52.474;10.768;2022-08-21T09:55:30;8.70;;;2.58;;
19985;SDS011;10154;52.474;10.768;2022-08-21T09:58:31;7.22;;;2.65;;
19985;SDS011;10154;52.474;10.768;2022-08-21T10:01:04;3.28;;;2.20;;
19985;SDS011;10154;52.474;10.768;2022-08-21T10:03:32;6.78;;;2.20;;
19985;SDS011;10154;52.474;10.768;2022-08-21T10:06:00;7.03;;;2.17;;
19985;SDS011;10154;52.474;10.768;2022-08-21T10:08:32;5.57;;;2.17;;
19985;SDS011;10154;52.474;10.768;2022-08-21T10:11:13;11.20;;;2.47;;
19985;SDS011;10154;52.474;10.768;2022-08-21T10:19:29;7.45;;;2.30;;
19985;SDS011;10154;52.474;10.768;2022-08-21T10:30:52;10.10;;;2.75;;
19985;SDS011;10154;52.474;10.768;2022-08-21T10:33:55;9.25;;;3.08;;
19985;SDS011;10154;52.474;10.768;2022-08-21T10:45:13;6.43;;;2.90;;
19985;SDS011;10154;52.474;10.768;2022-08-21T10:48:04;7.93;;;3.03;;
19985;SDS011;10154;52.474;10.768;2022-08-21T10:50:48;6.28;;;2.75;;
19985;SDS011;10154;52.474;10.768;2022-08-21T10:56:31;6.18;;;2.88;;
19985;SDS011;10154;52.474;10.768;2022-08-21T11:02:30;10.70;;;3.08;;
19985;SDS011;10154;52.474;10.768;2022-08-21T11:05:07;4.90;;;2.45;;
19985;SDS011;10154;52.474;10.768;2022-08-21T11:07:46;8.15;;;3.63;;
19985;SDS011;10154;52.474;10.768;2022-08-21T11:10:49;6.72;;;3.58;;
19985;SDS011;10154;52.474;10.768;2022-08-21T11:22:08;10.10;;;3.42;;
19985;SDS011;10154;52.474;10.768;2022-08-21T11:25:20;8.93;;;3.28;;
19985;SDS011;10154;52.474;10.768;2022-08-21T11:30:58;7.88;;;2.78;;
19985;SDS011;10154;52.474;10.768;2022-08-21T11:33:57;7.95;;;3.10;;
19985;SDS011;10154;52.474;10.768;2022-08-21T11:36:49;4.68;;;2.38;;
19985;SDS011;10154;52.474;10.768;2022-08-21T11:39:43;6.28;;;2.55;;
19985;SDS011;10154;52.474;10.768;2022-08-21T11:42:46;7.45;;;2.40;;
19985;SDS011;10154;52.474;10.768;2022-08-21T11:45:33;9.00;;;2.80;;
19985;SDS011;10154;52.474;10.768;2022-08-21T11:48:28;5.60;;;2.53;;
19985;SDS011;10154;52.474;10.768;2022-08-21T11:51:17;6.07;;;2.75;;
19985;SDS011;10154;52.474;10.768;2022-08-21T11:54:26;6.15;;;2.50;;
19985;SDS011;10154;52.474;10.768;2022-08-21T11:57:00;7.72;;;3.03;;
19985;SDS011;10154;52.474;10.768;2022-08-21T12:02:16;5.75;;;2.60;;
19985;SDS011;10154;52.474;10.768;2022-08-21T12:04:52;5.85;;;2.70;;
19985;SDS011;10154;52.474;10.768;2022-08-21T12:07:47;5.18;;;2.53;;
19985;SDS011;10154;52.474;10.768;2022-08-21T12:10:30;6.60;;;2.42;;
19985;SDS011;10154;52.474;10.768;2022-08-21T12:13:07;6.80;;;2.60;;
19985;SDS011;10154;52.474;10.768;2022-08-21T12:19:08;5.65;;;2.63;;
19985;SDS011;10154;52.474;10.768;2022-08-21T12:21:58;4.63;;;2.00;;
19985;SDS011;10154;52.474;10.768;2022-08-21T12:24:41;3.97;;;2.33;;
19985;SDS011;10154;52.474;10.768;2022-08-21T12:27:28;6.55;;;2.30;;
19985;SDS011;10154;52.474;10.768;2022-08-21T12:30:19;7.53;;;2.55;;
19985;SDS011;10154;52.474;10.768;2022-08-21T12:33:02;8.15;;;2.58;;
19985;SDS011;10154;52.474;10.768;2022-08-21T12:35:42;6.05;;;2.67;;
19985;SDS011;10154;52.474;10.768;2022-08-21T12:38:14;5.88;;;2.60;;
19985;SDS011;10154;52.474;10.768;2022-08-21T12:40:50;6.47;;;2.42;;
19985;SDS011;10154;52.474;10.768;2022-08-21T12:43:33;3.28;;;2.03;;
19985;SDS011;10154;52.474;10.768;2022-08-21T12:46:56;5.30;;;2.30;;
19985;SDS011;10154;52.474;10.768;2022-08-21T12:49:14;5.53;;;2.10;;
19985;SDS011;10154;52.474;10.768;2022-08-21T12:52:01;4.35;;;2.42;;
19985;SDS011;10154;52.474;10.768;2022-08-21T12:54:45;8.38;;;2.60;;
19985;SDS011;10154;52.474;10.768;2022-08-21T12:57:19;5.32;;;2.30;;
19985;SDS011;10154;52.474;10.768;2022-08-21T12:59:56;3.33;;;2.28;;
19985;SDS011;10154;52.474;10.768;2022-08-21T13:02:33;6.03;;;2.50;;
19985;SDS011;10154;52.474;10.768;2022-08-21T13:05:05;3.28;;;2.10;;
19985;SDS011;10154;52.474;10.768;2022-08-21T13:07:35;3.88;;;2.05;;
19985;SDS011;10154;52.474;10.768;2022-08-21T13:10:23;3.40;;;2.05;;
19985;SDS011;10154;52.474;10.768;2022-08-21T13:12:56;6.97;;;2.28;;
19985;SDS011;10154;52.474;10.768;2022-08-21T13:15:32;7.93;;;2.45;;
19985;SDS011;10154;52.474;10.768;2022-08-21T13:18:05;5.65;;;2.58;;
19985;SDS011;10154;52.474;10.768;2022-08-21T13:20:36;7.57;;;2.47;;
19985;SDS011;10154;52.474;10.768;2022-08-21T13:23:28;3.78;;;2.00;;
19985;SDS011;10154;52.474;10.768;2022-08-21T13:25:55;4.95;;;2.13;;
19985;SDS011;10154;52.474;10.768;2022-08-21T13:28:22;3.67;;;2.20;;
19985;SDS011;10154;52.474;10.768;2022-08-21T13:30:58;4.25;;;1.98;;
19985;SDS011;10154;52.474;10.768;2022-08-21T13:33:29;4.57;;;2.20;;
19985;SDS011;10154;52.474;10.768;2022-08-21T13:38:27;4.50;;;2.17;;
19985;SDS011;10154;52.474;10.768;2022-08-21T13:43:35;4.78;;;2.00;;
19985;SDS011;10154;52.474;10.768;2022-08-21T13:46:06;3.80;;;2.13;;
19985;SDS011;10154;52.474;10.768;2022-08-21T13:48:38;5.57;;;2.25;;
19985;SDS011;10154;52.474;10.768;2022-08-21T13:51:06;3.63;;;1.90;;
19985;SDS011;10154;52.474;10.768;2022-08-21T13:53:44;4.07;;;2.20;;
19985;SDS011;10154;52.474;10.768;2022-08-21T13:56:51;3.58;;;2.00;;
19985;SDS011;10154;52.474;10.768;2022-08-21T13:59:11;3.30;;;2.08;;
19985;SDS011;10154;52.474;10.768;2022-08-21T14:01:49;3.83;;;1.80;;
19985;SDS011;10154;52.474;10.768;2022-08-21T14:04:31;3.92;;;2.10;;
19985;SDS011;10154;52.474;10.768;2022-08-21T14:07:20;5.82;;;2.35;;
19985;SDS011;10154;52.474;10.768;2022-08-21T14:09:52;9.27;;;2.50;;
19985;SDS011;10154;52.474;10.768;2022-08-21T14:12:24;7.70;;;2.58;;
19985;SDS011;10154;52.474;10.768;2022-08-21T14:15:03;2.40;;;1.70;;
19985;SDS011;10154;52.474;10.768;2022-08-21T14:17:32;2.67;;;1.80;;
19985;SDS011;10154;52.474;10.768;2022-08-21T14:20:03;2.53;;;1.63;;
19985;SDS011;10154;52.474;10.768;2022-08-21T14:22:36;5.55;;;2.00;;
19985;SDS011;10154;52.474;10.768;2022-08-21T14:25:26;4.60;;;1.90;;
19985;SDS011;10154;52.474;10.768;2022-08-21T14:30:55;3.63;;;2.10;;
19985;SDS011;10154;52.474;10.768;2022-08-21T14:33:43;4.75;;;2.00;;
19985;SDS011;10154;52.474;10.768;2022-08-21T14:36:09;5.60;;;2.20;;
19985;SDS011;10154;52.474;10.768;2022-08-21T14:38:37;3.50;;;2.10;;
19985;SDS011;10154;52.474;10.768;2022-08-21T14:41:11;6.40;;;2.03;;
19985;SDS011;10154;52.474;10.768;2022-08-21T14:43:51;7.70;;;2.28;;
19985;SDS011;10154;52.474;10.768;2022-08-21T14:46:26;3.83;;;1.80;;
19985;SDS011;10154;52.474;10.768;2022-08-21T14:48:55;4.07;;;1.90;;
19985;SDS011;10154;52.474;10.768;2022-08-21T14:51:21;4.68;;;1.88;;
19985;SDS011;10154;52.474;10.768;2022-08-21T14:53:49;3.47;;;1.90;;
19985;SDS011;10154;52.474;10.768;2022-08-21T14:56:16;6.28;;;2.10;;
19985;SDS011;10154;52.474;10.768;2022-08-21T14:58:44;3.83;;;1.90;;
19985;SDS011;10154;52.474;10.768;2022-08-21T15:01:13;5.45;;;1.70;;
19985;SDS011;10154;52.474;10.768;2022-08-21T15:03:43;4.20;;;1.80;;
19985;SDS011;10154;52.474;10.768;2022-08-21T15:06:11;2.92;;;1.70;;
19985;SDS011;10154;52.474;10.768;2022-08-21T15:08:37;3.03;;;1.70;;
19985;SDS011;10154;52.474;10.768;2022-08-21T15:11:04;3.17;;;1.70;;
19985;SDS011;10154;52.474;10.768;2022-08-21T15:13:32;2.53;;;1.70;;
19985;SDS011;10154;52.474;10.768;2022-08-21T15:15:59;2.85;;;1.60;;
19985;SDS011;10154;52.474;10.768;2022-08-21T15:18:26;6.63;;;1.85;;
19985;SDS011;10154;52.474;10.768;2022-08-21T15:20:54;6.97;;;1.98;;
19985;SDS011;10154;52.474;10.768;2022-08-21T15:23:20;3.85;;;1.70;;
19985;SDS011;10154;52.474;10.768;2022-08-21T15:25:47;4.47;;;1.65;;
19985;SDS011;10154;52.474;10.768;2022-08-21T15:28:14;3.53;;;1.83;;
19985;SDS011;10154;52.474;10.768;2022-08-21T15:30:42;4.88;;;1.80;;
19985;SDS011;10154;52.474;10.768;2022-08-21T15:33:09;4.93;;;1.75;;
19985;SDS011;10154;52.474;10.768;2022-08-21T15:35:39;3.47;;;1.73;;
19985;SDS011;10154;52.474;10.768;2022-08-21T15:38:05;3.15;;;1.60;;
19985;SDS011;10154;52.474;10.768;2022-08-21T15:40:32;4.55;;;1.80;;
19985;SDS011;10154;52.474;10.768;2022-08-21T15:43:01;3.00;;;1.65;;
19985;SDS011;10154;52.474;10.768;2022-08-21T15:45:29;5.22;;;1.90;;
19985;SDS011;10154;52.474;10.768;2022-08-21T15:47:57;3.65;;;1.70;;
19985;SDS011;10154;52.474;10.768;2022-08-21T15:50:24;2.85;;;1.55;;
19985;SDS011;10154;52.474;10.768;2022-08-21T15:52:53;3.95;;;1.80;;
19985;SDS011;10154;52.474;10.768;2022-08-21T15:55:19;2.95;;;1.60;;
19985;SDS011;10154;52.474;10.768;2022-08-21T15:57:48;4.35;;;1.58;;
19985;SDS011;10154;52.474;10.768;2022-08-21T16:00:20;5.30;;;1.50;;
19985;SDS011;10154;52.474;10.768;2022-08-21T16:02:50;3.53;;;1.77;;
19985;SDS011;10154;52.474;10.768;2022-08-21T16:05:21;7.93;;;1.60;;
19985;SDS011;10154;52.474;10.768;2022-08-21T16:07:48;4.63;;;1.52;;
19985;SDS011;10154;52.474;10.768;2022-08-21T16:10:17;2.25;;;1.40;;
19985;SDS011;10154;52.474;10.768;2022-08-21T16:12:48;3.10;;;1.73;;
19985;SDS011;10154;52.474;10.768;2022-08-21T16:15:20;2.97;;;1.45;;
19985;SDS011;10154;52.474;10.768;2022-08-21T16:17:47;2.50;;;1.50;;